createdAt,value
2019-06-08T00:03:38.635Z,4.47
2019-06-08T00:08:44.233Z,3.20
2019-06-08T00:13:49.904Z,4.37
2019-06-08T00:18:55.469Z,5.75
2019-06-08T00:24:01.244Z,6.22
2019-06-08T00:29:06.775Z,7.72
2019-06-08T00:34:12.342Z,5.85
2019-06-08T00:39:18.858Z,5.92
2019-06-08T00:44:25.645Z,5.72
2019-06-08T00:49:31.411Z,3.30
2019-06-08T00:54:37.072Z,1.35
2019-06-08T00:59:42.762Z,7.90
2019-06-08T01:04:48.406Z,3.83
2019-06-08T01:09:53.993Z,4.92
2019-06-08T01:14:59.630Z,4.67
2019-06-08T01:20:06.077Z,5.58
2019-06-08T01:25:11.841Z,7.47
2019-06-08T01:30:17.998Z,7.78
2019-06-08T01:35:24.821Z,5.72
2019-06-08T01:40:31.523Z,8.53
2019-06-08T01:45:37.124Z,6.70
2019-06-08T01:50:42.678Z,3.77
2019-06-08T01:55:48.246Z,7.42
2019-06-08T02:00:54.037Z,3.77
2019-06-08T02:05:59.620Z,3.90
2019-06-08T02:11:05.769Z,4.90
2019-06-08T02:16:11.450Z,3.72
2019-06-08T02:21:17.003Z,4.35
2019-06-08T02:26:22.554Z,3.83
2019-06-08T02:31:28.117Z,4.92
2019-06-08T02:36:35.399Z,4.90
2019-06-08T02:41:41.043Z,2.83
2019-06-08T02:46:46.723Z,0.85
2019-06-08T02:51:52.583Z,0.93
2019-06-08T02:57:00.135Z,5.17
2019-06-08T03:02:05.904Z,1.65
2019-06-08T03:07:13.242Z,1.25
2019-06-08T03:12:20.754Z,1.75
2019-06-08T03:17:26.453Z,1.65
2019-06-08T03:22:32.532Z,2.70
2019-06-08T03:27:40.640Z,1.10
2019-06-08T03:32:55.092Z,3.65
2019-06-08T03:37:53.792Z,2.37
2019-06-08T03:43:01.417Z,2.20
2019-06-08T03:48:06.640Z,5.70
2019-06-08T03:53:12.178Z,0.70
2019-06-08T03:58:17.778Z,0.95
2019-06-08T04:03:23.342Z,4.65
2019-06-08T04:08:28.862Z,0.60
2019-06-08T04:13:34.439Z,1.35
2019-06-08T04:18:40.698Z,1.20
2019-06-08T04:23:47.388Z,0.60
2019-06-08T04:28:53.190Z,1.40
2019-06-08T04:33:58.761Z,3.20
2019-06-08T04:39:05.889Z,1.10
2019-06-08T04:44:11.488Z,2.20
2019-06-08T04:49:17.015Z,2.50
2019-06-08T04:54:22.580Z,5.72
2019-06-08T04:59:28.336Z,4.00
2019-06-08T05:04:33.910Z,4.47
2019-06-08T05:09:40.985Z,3.80
2019-06-08T05:14:47.290Z,4.35
2019-06-08T05:19:52.953Z,2.60
2019-06-08T05:24:58.536Z,2.10
2019-06-08T05:30:08.487Z,1.98
2019-06-08T05:35:11.665Z,1.90
2019-06-08T05:40:17.534Z,3.58
2019-06-08T05:45:23.114Z,1.42
2019-06-08T05:50:28.754Z,2.02
2019-06-08T05:55:34.338Z,3.90
2019-06-08T06:00:40.112Z,3.58
2019-06-08T06:05:46.523Z,3.37
2019-06-08T06:10:52.270Z,4.37
2019-06-08T06:15:57.771Z,4.65
2019-06-08T06:21:11.007Z,2.60
2019-06-08T06:26:10.791Z,8.03
2019-06-08T06:31:16.373Z,4.87
2019-06-08T06:36:22.144Z,2.17
2019-06-08T06:41:27.813Z,6.70
2019-06-08T06:46:33.861Z,4.47
2019-06-08T06:51:39.423Z,4.28
2019-06-08T06:56:45.296Z,7.08
2019-06-08T07:01:54.174Z,7.03
2019-06-08T07:06:59.118Z,2.87
2019-06-08T07:12:04.735Z,4.58
2019-06-08T07:17:10.264Z,6.37
2019-06-08T07:22:16.042Z,7.20
2019-06-08T07:27:21.606Z,4.13
2019-06-08T07:32:27.162Z,4.12
2019-06-08T07:37:32.965Z,2.25
2019-06-08T07:42:38.507Z,4.83
2019-06-08T07:47:44.154Z,3.80
2019-06-08T07:52:51.254Z,5.33
2019-06-08T07:57:57.818Z,6.65
2019-06-08T08:03:03.423Z,2.40
2019-06-08T08:08:09.006Z,9.05
2019-06-08T08:13:14.592Z,6.47
2019-06-08T08:18:20.319Z,4.80
2019-06-08T08:23:27.438Z,8.25
2019-06-08T08:28:33.212Z,5.85
2019-06-08T08:33:38.833Z,6.22
2019-06-08T08:38:44.339Z,7.87
2019-06-08T08:43:51.265Z,5.00
2019-06-08T08:49:06.923Z,8.18
2019-06-08T08:54:05.441Z,3.40
2019-06-08T08:59:11.709Z,4.75
2019-06-08T09:04:18.502Z,8.73
2019-06-08T09:09:24.475Z,3.30
2019-06-08T09:14:30.122Z,2.02
2019-06-08T09:19:37.997Z,6.20
2019-06-08T09:24:43.114Z,2.05
2019-06-08T09:29:48.813Z,8.33
2019-06-08T09:34:54.723Z,7.20
2019-06-08T09:40:03.388Z,12.70
2019-06-08T09:45:09.540Z,2.95
2019-06-08T09:50:18.535Z,10.05
2019-06-08T09:55:23.454Z,4.58
2019-06-08T10:00:30.084Z,5.40
2019-06-08T10:05:35.729Z,4.50
2019-06-08T10:10:41.533Z,8.40
2019-06-08T10:15:48.739Z,8.53
2019-06-08T10:20:54.778Z,2.52
2019-06-08T10:26:02.633Z,6.35
2019-06-08T10:31:07.831Z,3.90
2019-06-08T10:36:13.437Z,3.30
2019-06-08T10:41:21.818Z,6.95
2019-06-08T10:46:26.526Z,1.92
2019-06-08T10:51:32.240Z,4.22
2019-06-08T10:56:38.521Z,8.98
2019-06-08T11:01:44.490Z,7.83
2019-06-08T11:06:50.103Z,1.92
2019-06-08T11:11:57.955Z,4.97
2019-06-08T11:17:04.904Z,4.35
2019-06-08T11:22:14.245Z,4.97
2019-06-08T11:27:18.732Z,10.03
2019-06-08T11:32:24.645Z,1.25
2019-06-08T11:37:30.357Z,8.30
2019-06-08T11:42:38.645Z,6.08
2019-06-08T11:47:43.663Z,4.17
2019-06-08T11:52:49.355Z,6.45
2019-06-08T11:57:55.730Z,2.45
2019-06-08T12:03:02.240Z,7.08
2019-06-08T12:08:08.429Z,4.70
2019-06-08T12:13:14.364Z,11.03
2019-06-08T12:18:20.505Z,5.55
2019-06-08T12:23:26.278Z,4.72
2019-06-08T12:28:34.957Z,5.10
2019-06-08T12:33:40.578Z,5.33
2019-06-08T12:38:48.549Z,4.33
2019-06-08T12:43:53.396Z,6.45
2019-06-08T12:48:59.117Z,4.28
2019-06-08T12:54:04.900Z,2.85
2019-06-08T12:59:13.818Z,4.33
2019-06-08T13:04:21.321Z,8.55
2019-06-08T13:09:25.059Z,7.62
2019-06-08T13:14:30.765Z,4.40
2019-06-08T13:19:38.467Z,4.30
2019-06-08T13:24:43.571Z,2.72
2019-06-08T13:29:49.234Z,5.25
2019-06-08T13:34:58.059Z,4.90
2019-06-08T13:40:02.386Z,1.60
2019-06-08T13:45:08.805Z,10.20
2019-06-08T13:50:14.666Z,5.67
2019-06-08T13:55:36.644Z,2.50
2019-06-08T14:00:38.178Z,6.05
2019-06-08T14:05:42.928Z,6.12
2019-06-08T14:10:48.531Z,2.60
2019-06-08T14:15:54.405Z,4.58
2019-06-08T14:21:00.023Z,2.37
2019-06-08T14:26:08.161Z,2.85
2019-06-08T14:31:13.095Z,2.83
2019-06-08T14:36:21.591Z,5.53
2019-06-08T14:41:28.858Z,6.08
2019-06-08T14:46:33.108Z,4.33
2019-06-08T14:51:48.936Z,2.27
2019-06-08T14:56:57.539Z,2.85
2019-06-08T15:02:02.588Z,6.83
2019-06-08T15:07:09.579Z,2.52
2019-06-08T15:12:17.690Z,4.20
2019-06-08T15:17:23.695Z,2.33
2019-06-08T15:22:31.442Z,0.70
2019-06-08T15:27:38.768Z,2.83
2019-06-08T15:32:44.149Z,6.47
2019-06-08T15:37:49.763Z,6.40
2019-06-08T15:42:55.326Z,4.40
2019-06-08T15:48:01.030Z,3.12
2019-06-08T15:53:08.295Z,3.55
2019-06-08T15:58:13.948Z,6.65
2019-06-08T16:03:19.651Z,6.17
2019-06-08T16:08:25.909Z,3.60
2019-06-08T16:13:32.967Z,5.30
2019-06-08T16:18:38.685Z,2.30
2019-06-08T16:23:44.473Z,8.78
2019-06-08T16:28:50.072Z,3.50
2019-06-08T16:33:55.705Z,4.28
2019-06-08T16:39:01.316Z,2.58
2019-06-08T16:44:07.432Z,5.05
2019-06-08T16:49:13.253Z,3.75
2019-06-08T16:54:19.004Z,2.02
2019-06-08T16:59:24.766Z,4.22
2019-06-08T17:04:31.182Z,5.15
2019-06-08T17:09:37.812Z,6.55
2019-06-08T17:14:43.947Z,8.03
2019-06-08T17:19:49.525Z,12.40
2019-06-08T17:24:55.445Z,3.22
2019-06-08T17:30:08.105Z,7.60
2019-06-08T17:35:08.449Z,4.90
2019-06-08T17:40:15.155Z,3.12
2019-06-08T17:45:21.005Z,4.15
2019-06-08T17:50:26.657Z,3.10
2019-06-08T17:55:33.133Z,5.15
2019-06-08T18:00:39.481Z,1.25
2019-06-08T18:05:48.192Z,5.28
2019-06-08T18:10:53.209Z,3.40
2019-06-08T18:15:58.901Z,3.20
2019-06-08T18:21:04.493Z,4.30
2019-06-08T18:26:10.121Z,6.00
2019-06-08T18:31:17.984Z,3.37
2019-06-08T18:36:22.873Z,4.25
2019-06-08T18:41:28.563Z,3.52
2019-06-08T18:46:34.964Z,4.75
2019-06-08T18:51:42.795Z,5.50
2019-06-08T18:56:48.903Z,4.42
2019-06-08T19:01:57.358Z,1.70
2019-06-08T19:07:03.250Z,2.15
2019-06-08T19:12:09.263Z,4.83
2019-06-08T19:17:17.340Z,1.10
2019-06-08T19:22:22.290Z,1.75
2019-06-08T19:27:28.094Z,5.62
2019-06-08T19:32:33.634Z,1.85
2019-06-08T19:37:39.692Z,4.33
2019-06-08T19:42:53.943Z,4.70
2019-06-08T19:47:52.604Z,2.65
2019-06-08T19:52:58.358Z,5.70
2019-06-08T19:58:03.991Z,4.33
2019-06-08T20:03:09.632Z,7.97
2019-06-08T20:08:18.679Z,6.53
2019-06-08T20:13:24.334Z,5.58
2019-06-08T20:18:29.983Z,5.55
2019-06-08T20:23:38.054Z,7.25
2019-06-08T20:28:44.368Z,3.70
2019-06-08T20:33:51.963Z,4.75
2019-06-08T20:38:58.460Z,7.33
2019-06-08T20:44:04.148Z,5.53
2019-06-08T20:49:09.814Z,4.45
2019-06-08T20:54:17.255Z,3.90
2019-06-08T20:59:29.942Z,6.15
2019-06-08T21:04:29.993Z,3.27
2019-06-08T21:09:37.102Z,4.75
2019-06-08T21:14:42.912Z,3.67
2019-06-08T21:19:48.809Z,5.90
2019-06-08T21:24:56.850Z,6.17
2019-06-08T21:30:07.008Z,2.70
2019-06-08T21:35:09.305Z,4.20
2019-06-08T21:40:17.441Z,6.62
2019-06-08T21:45:22.236Z,6.40
2019-06-08T21:50:27.816Z,10.55
2019-06-08T21:55:33.379Z,8.10
2019-06-08T22:00:43.173Z,11.55
2019-06-08T22:05:47.310Z,14.45
2019-06-08T22:10:54.280Z,10.13
2019-06-08T22:16:02.122Z,16.27
2019-06-08T22:21:08.546Z,16.25
2019-06-08T22:26:14.323Z,8.28
2019-06-08T22:31:23.071Z,11.78
2019-06-08T22:36:27.634Z,20.32
2019-06-08T22:41:33.474Z,17.77
2019-06-08T22:46:38.974Z,12.47
2019-06-08T22:51:44.702Z,17.87
2019-06-08T22:56:50.352Z,13.58
2019-06-08T23:01:58.353Z,12.07
2019-06-08T23:07:05.817Z,13.53
2019-06-08T23:12:10.550Z,17.07
2019-06-08T23:17:17.865Z,21.70
2019-06-08T23:22:23.591Z,20.27
2019-06-08T23:27:29.417Z,15.50
2019-06-08T23:32:35.103Z,13.10
2019-06-08T23:37:40.667Z,11.45
2019-06-08T23:42:47.671Z,11.80
2019-06-08T23:47:53.401Z,15.83
2019-06-08T23:52:59.633Z,16.25
2019-06-08T23:58:09.482Z,11.75
